ראשי / חיפושים אחרונים

חיפושים אחרונים

לוחית
סוג רכב
דגם
שנה
תאריך חיפוש
שעת חיפוש
1028737 טויוטה טורקיה COROLLA 2016 02/09/2026 04:02:27
7954776 פולקסווגן ספרד POLO 2012 02/09/2026 04:02:26
26880603 קיה קוריאה הדרומית NIRO PLUS PHEV 2022 02/09/2026 04:02:24
6615139 יונדאי קוריאה הדרומית I25 2016 02/09/2026 04:02:24
4125171 מזדה תאילנד MAZDA 2 2010 02/09/2026 04:02:22
44854403 סוזוקי הונגריה S-CROSS 2023 02/09/2026 04:02:20
66889004 זיקר סין ZEEKR 7X 2026 02/09/2026 04:02:19
7419816 פולקסווגן גרמניה GOLF 2005 02/09/2026 04:02:15
5089158 מרוטי סוזוקי הודו ALTO 2014 02/09/2026 04:02:14
18645403 פיאט איטליה - 2022 02/09/2026 04:02:14
1390530 סובארו יפן B4 2015 02/09/2026 04:02:10
5030330 לקסוס יפן LEXUS GS300H 2014 02/09/2026 04:02:09
2657537 טויוטה יפן RAV 4 2016 02/09/2026 04:02:08
1008187 הונדה בריטניה CIVIC 2017 02/09/2026 04:02:06
74245203 טויוטה טורקיה TOYOTA C-HR 2024 02/09/2026 04:02:06
12314303 מאן אוסטריה - 2022 02/09/2026 04:02:04
5881411 פיאט איטליה - 2013 02/09/2026 04:02:01
7780464 סובארו יפן IMPREZA B3 2008 02/09/2026 04:02:00
26280001 פיאט איטליה 500X 2017 02/09/2026 04:01:59
92729301 מרצדס בנץ גרמנ - 2021 02/09/2026 04:01:58
27136002 יונדאי קוריאה הדרומית IONIQ HYBRID 2020 02/09/2026 04:01:56
53892101 מיצובישי יפן OUTLANDER 2019 02/09/2026 04:01:54
3356334 יונדאי קוריאה הדרומית I35 2015 02/09/2026 04:01:54
65695801 ימהה צרפת - 2019 02/09/2026 04:01:51
7397784 דאציה מרוקו DOKKER 2017 02/09/2026 04:01:50
53554201 מיצובישי יפן ECLIPSE CROSS 2019 02/09/2026 04:01:50
16327102 טויוטה טורקיה COROLLA HSD SDN 2020 02/09/2026 04:01:49
48205401 איסוזו תאילנד PICK-UP 2019 02/09/2026 04:01:48
21030204 טויוטה יפן COROLLA CROSS 2025 02/09/2026 04:01:48
74189603 טויוטה טורקיה COROLLA SDN HSD 2024 02/09/2026 04:01:47
7397784 דאציה מרוקו DOKKER 2017 02/09/2026 04:01:46
80283302 שברולט ארהב" - 2022 02/09/2026 04:01:44
6644567 סובארו יפן B4 2011 02/09/2026 04:01:41
31453903 לינק אנד קו סין LYNKCO 01 2024 02/09/2026 04:01:41
1070487 הונדה מקסיקו HR-V 2017 02/09/2026 04:01:40
43108401 קיה קוריאה הדרומית NIRO 2019 02/09/2026 04:01:39
31083701 סקניה-הולנד - 2022 02/09/2026 04:01:38
5202269 רנו טורקיה MEGANE II 2009 02/09/2026 04:01:36
1629078 פיאט פולין PANDA 2011 02/09/2026 04:01:35
49304304 ג'יפ פולין AVENGER 2026 02/09/2026 04:01:34
26807604 צ'רי סין FX EV 2025 02/09/2026 04:01:33
47803101 איסוזו תאילנד PICK-UP 2019 02/09/2026 04:01:33
53214504 ב מ וו ארהב" X6 M60I 2025 02/09/2026 04:01:30
11388704 אקספנג סין P7I 2024 02/09/2026 04:01:30
3990333 קיה קוריאה הדרומית PICANTO 2015 02/09/2026 04:01:29
39022702 פיג'ו צרפת 3008 2021 02/09/2026 04:01:24
1055966 שברולט ארהב" - 2008 02/09/2026 04:01:22
46141401 טויוטה יפן LAND CRUISER 2019 02/09/2026 04:01:21
93157901 רולפו איטליה - 2023 02/09/2026 04:01:20
24415702 סקודה צ'כיה KAROQ 2020 02/09/2026 04:01:19
8685431 רנו ספרד CAPTUR 2014 02/09/2026 04:01:18
36113602 מיצובישי יפן ASX 2021 02/09/2026 04:01:18
9887413 קרייזלר ארהב" GRAND CHEROKEE 2012 02/09/2026 04:01:16
16132802 טויוטה צרפת YARIS 2020 02/09/2026 04:01:14
15953202 טויוטה טורקיה COROLLA SDN 2020 02/09/2026 04:01:13
28642003 סקניה-שוודיה - 2024 02/09/2026 04:01:13
7607358 ניסאן ספרד TERRANO 2005 02/09/2026 04:01:10
64563501 סיטרואן סלובקיה C3 2019 02/09/2026 04:01:10
4976466 יונדאי קוריאה הדרומית SANTA FE 2009 02/09/2026 04:01:09
9269932 שברולט קוריאה הדרומית CAPTIVA 2015 02/09/2026 04:01:05
9682163 סוזוקי יפן JIMNY 2008 02/09/2026 04:01:05
77365203 מזדה יפן MAZDA CX-5 2024 02/09/2026 04:01:04
7954776 פולקסווגן ספרד POLO 2012 02/09/2026 04:01:03
88380903 מ.ג סין MG3 2025 02/09/2026 04:01:02
4554179 קיה קוריאה הדרומית RIO 2012 02/09/2026 04:01:01
93949301 סיטרואן צרפת C5 AIRCROSS 2021 02/09/2026 04:01:01
60194403 רנו טורקיה MEGANE 2024 02/09/2026 04:01:00
69010202 סאן יאנג טיואן - 2021 02/09/2026 04:00:59
9453136 מזדה יפן LANTIS-323 2002 02/09/2026 04:00:56
1893813 דאף אנגליה - 2007 02/09/2026 04:00:50
4142964 טויוטה תאילנד HILUX VIGO 2008 02/09/2026 04:00:50
4900172 שברולט קוריאה הדרומית CRUZE 1.6 LS 2011 02/09/2026 04:00:48
1937775 סובארו יפן XV 2013 02/09/2026 04:00:48
8387522 מזדה יפן - 2015 02/09/2026 04:00:46
37718901 מרוטי סוזוקי הודו BALENO 2018 02/09/2026 04:00:42
19021803 ב מ וו סין - 2022 02/09/2026 04:00:42
1117550 טויוטה טורקיה COROLLA 2003 02/09/2026 04:00:41
2939760 סובארו יפן IMPREZA 2006 02/09/2026 04:00:40
32928602 טויוטה יפן RAV 4 HYBRID 2021 02/09/2026 04:00:36
3824673 סוזוקי-יפן SX4 2010 02/09/2026 04:00:33
2195462 פולקסווגן גרמניה PASSAT 2007 02/09/2026 04:00:32
8563268 פורד בלגיה MONDE0 2010 02/09/2026 04:00:27
4254378 הונדה יפן - 2013 02/09/2026 04:00:23
77355402 מרצדס גרמניה AMG GT43 2022 02/09/2026 04:00:20
1032411 יונדאי צ'כיה I30 2012 02/09/2026 04:00:18
1716113 סיאט ספרד IBIZA 2005 02/09/2026 04:00:18
1506333 ניסאן הודו MICRA 2015 02/09/2026 04:00:17
11946602 דאצ'יה רומניה SANDERO 2020 02/09/2026 04:00:16
8515453 סוזוקי הונגריה SX4 2013 02/09/2026 04:00:14
3300831 יונדאי קוריאה הדרומית I35 2014 02/09/2026 04:00:11
8938250 ניסאן בריטניה ALMERA 2003 02/09/2026 04:00:10
92729301 מרצדס בנץ גרמנ - 2021 02/09/2026 04:00:09
1071479 פיאט איטליה PUNTO 1.2 2011 02/09/2026 04:00:08
34115004 טויוטה ספרד TOYOTA CITY 2025 02/09/2026 04:00:07
31028701 סקניה צרפת - 2021 02/09/2026 04:00:06
7954776 פולקסווגן ספרד POLO 2012 02/09/2026 04:00:06
8576071 טויוטה יפן COROLLA 2010 02/09/2026 04:00:05
5001434 פולקסווגן גרמניה GOLF 2015 02/09/2026 04:00:04
4164976 יונדאי צ'כיה I30 2011 02/09/2026 04:00:02
1381973 יונדאי הודו I20 2010 02/09/2026 04:00:01
39666601 אאודי סלובקיה Q7 2018 02/09/2026 04:00:00
3276851 רנו צרפת KANGOO 2003 02/09/2026 03:59:59
6532513 סיטרואן ספרד BERLINGO 2012 02/09/2026 03:59:58
39465602 יונדאי טורקיה I10 2021 02/09/2026 03:59:57
1904262 טויוטה טורקיה COROLLA 2007 02/09/2026 03:59:57
38687701 פולקסווגן גרמניה GOLF 2018 02/09/2026 03:59:57
2764532 שברולט קנדה IMPALA 2014 02/09/2026 03:59:55
2210823 סובארו יפן IMPREZA 2001 02/09/2026 03:59:52
3691862 פורד ספרד FOCUS 2007 02/09/2026 03:59:50
4225412 סקודה צ'כיה YETI 2013 02/09/2026 03:59:50
9756376 טויוטה יפן - 2015 02/09/2026 03:59:50
41351701 קיה קוריאה הדרומית STONIC 2018 02/09/2026 03:59:47
2564731 יונדאי טורקיה I20 2014 02/09/2026 03:59:46
34330703 מרצדס גרמניה C300 2023 02/09/2026 03:59:43
4190733 קיה סלובקיה SPORTAGE 2015 02/09/2026 03:59:40
80458302 קאדילאק ארהב" XT5 2023 02/09/2026 03:59:38
78880104 ג'י.אמ.סי ארה - 2026 02/09/2026 03:59:38
1194062 ניסאן ספרד NAVARA 2007 02/09/2026 03:59:36
2013560 סאן יאנג טיואן - 2007 02/09/2026 03:59:35
87309202 טויוטה יפן LAND CRUISER 2022 02/09/2026 03:59:34
76147402 מיצובישי תאילנד SPACE STAR 2022 02/09/2026 03:59:34
7954776 פולקסווגן ספרד POLO 2012 02/09/2026 03:59:33
4676616 פיג'ו צרפת 106 1998 02/09/2026 03:59:33
4135136 ניסאן ספרד TERRANO 2002 02/09/2026 03:59:32
42962103 יונדאי טורקיה I20 2023 02/09/2026 03:59:30
1862237 טויוטה טורקיה COROLLA 2016 02/09/2026 03:59:24
1145968 קרייזלר ארהב" DODGE AVANGER 2009 02/09/2026 03:59:22
2709178 קי.טי.אמ אוסטר - 2012 02/09/2026 03:59:21
71903003 זיקר סין ZEEKR X 2024 02/09/2026 03:59:21
4693161 מזדה יפן MAZDA 6 2007 02/09/2026 03:59:20
92729301 מרצדס בנץ גרמנ - 2021 02/09/2026 03:59:20
19493302 טויוטה טורקיה C-HR HYBRID 2020 02/09/2026 03:59:19
58637901 רנו טורקיה CLIO 2018 02/09/2026 03:59:18
8432812 סיטרואן צרפת C4 2013 02/09/2026 03:59:18
2449030 ב מ וו גרמניה 120I 2016 02/09/2026 03:59:18
82894502 טויוטה תאילנד HILUX 2022 02/09/2026 03:59:16
86997702 טויוטה תאילנד HILUX 2022 02/09/2026 03:59:14
33254802 רנו צרפת KANGOO 2021 02/09/2026 03:59:12
53537402 ניסאן יפן X-TRAIL 2021 02/09/2026 03:59:12
39184304 צ'רי סין TIGGO8PRO PHEV 2025 02/09/2026 03:59:10
7954776 פולקסווגן ספרד POLO 2012 02/09/2026 03:59:09
3767738 פולקסווגן גרמניה GOLF 2016 02/09/2026 03:59:08
15882001 יונדאי קוריאה הדרומית SONATA HYBRID 2018 02/09/2026 03:59:06
6542680 סיטרואן ספרד C4 PICASSO 2017 02/09/2026 03:59:04
67695302 מזדה יפן CX-5 2021 02/09/2026 03:59:04
23131603 סיאט ספרד CUPRA 2022 02/09/2026 03:59:03
2830712 סקודה צ'כיה OCTAVIA 2013 02/09/2026 03:59:02
4643075 מזדה יפן MAZDA 3 2012 02/09/2026 03:59:01
5168811 מיצובישי יפן OUTLANDER 2013 02/09/2026 03:58:58
91075101 ב מ וו גרמניה - 2018 02/09/2026 03:58:58
34647103 ב מ וו גרמניה 530E 2023 02/09/2026 03:58:56
1032129 ניסאן יפן - 1996 02/09/2026 03:58:54
44159402 אאודי הונגריה Q3 SPORTBACK 2021 02/09/2026 03:58:50
9172268 ב מ וו ארהב" - 2008 02/09/2026 03:58:50
1147338 קרייזלר ארהב" WRANGLER 2016 02/09/2026 03:58:48
93816101 רנו טורקיה MEGANE 2019 02/09/2026 03:58:48
92729301 מרצדס בנץ גרמנ - 2021 02/09/2026 03:58:46
3356334 יונדאי קוריאה הדרומית I35 2015 02/09/2026 03:58:46
71961604 טויוטה צרפת YARIS CROSS HYB 2026 02/09/2026 03:58:46
85888903 אאודי סלובקיה Q8 2024 02/09/2026 03:58:45
3767050 סיטרואן צרפת C5 2003 02/09/2026 03:58:44
1165873 יונדאי צ'כיה I30 2010 02/09/2026 03:58:42
65093102 קיה סלובקיה SPORTAGE 2021 02/09/2026 03:58:41
34447904 אקספנג סין P7I 2025 02/09/2026 03:58:41
75279301 סוזוקי יפן IGNIS 2019 02/09/2026 03:58:38
20666404 זונגטונג סין - 2025 02/09/2026 03:58:34
84057701 טויוטה טורקיה C-HR HYBRID 2019 02/09/2026 03:58:34
5994612 יונדאי טורקיה I20 2012 02/09/2026 03:58:33
21586902 סאן יאנג טיואן - 2020 02/09/2026 03:58:30
6316261 הונדה יפן CIVIC 2007 02/09/2026 03:58:28
92729301 מרצדס בנץ גרמנ - 2021 02/09/2026 03:58:27
34239103 יונדאי קוריאה הדרומית SONATA 2023 02/09/2026 03:58:27
1090073 יונדאי קוריאה הדרומית TOCSON 2010 02/09/2026 03:58:24
4467238 פולקסווגן מקסיקה JETTA 2016 02/09/2026 03:58:24
77738701 מרצדס ארהב" GLE 350D 4MATIC 2020 02/09/2026 03:58:22
1172432 יונדאי טורקיה I10 2014 02/09/2026 03:58:21
3291375 שברולט ארה"ב - 2011 02/09/2026 03:58:20
74690601 סקודה צ'כיה OCTAVIA 2019 02/09/2026 03:58:16
44066402 סיאט צ'כיה ATECA FR 2021 02/09/2026 03:58:14
2005472 דייהטסו יפן SIRION 2010 02/09/2026 03:58:12
65276603 סיטרואן ספרד C4X 2024 02/09/2026 03:58:10
29840001 פורד גרמניה FOCUS 2018 02/09/2026 03:58:07
1348368 סוזוקי יפן SWIFT 2009 02/09/2026 03:58:03
8618081 טויוטה טורקיה COROLLA 2016 02/09/2026 03:58:02
6812058 סוזוקי יפן SX4 2014 02/09/2026 03:58:01
48944203 סיטרואן ספרד BERLINGO 2023 02/09/2026 03:58:00
1707366 מזדה יפן MAZDA 3 2008 02/09/2026 03:57:59
77780803 יונדאי קוריאה הדרומית KONA HYBRID 2024 02/09/2026 03:57:58
4296564 טויוטה טורקיה AURIS 2008 02/09/2026 03:57:54
55186003 קיה קוריאה הדרומית SELTOS 2023 02/09/2026 03:57:50
3663639 שברולט קנדה IMPALA 2016 02/09/2026 03:57:50
1508789 סובארו יפן XV 2017 02/09/2026 03:57:48
52784302 טויוטה יפן CAMRY HYBRID 2021 02/09/2026 03:57:48
3877513 מזדה יפן MAZDA3 2006 02/09/2026 03:57:47
46847101 טויוטה צרפת YARIS 2019 02/09/2026 03:57:45
1712761 מזדה יפן MAZDA 3 2007 02/09/2026 03:57:44
47693901 שברולט ארהב" TRAVERSE 2019 02/09/2026 03:57:41
19197103 יונדאי טורקיה I20 2022 02/09/2026 03:57:40
5365672 שברולט קוריאה הדרומית SPARK LS 2011 02/09/2026 03:57:40
7723954 ב מ וו גרמניה 316I 2015 02/09/2026 03:57:38
וואטסאפ